Terminal Aerodrome Forecast
Issued by NWS

Home | Current Version | Previous Version | Text Only | Print | Product List | Glossary On
Versions: 1 2 3 4 5 6 7 8 9 10 11 12 13
000
FTUS43 KICT 132336
TAFCNU
TAF
KCNU 132336Z 1400/1424 11007KT P6SM SCT100 BKN200
     FM140600 14011KT P6SM BKN070
     FM140900 15012KT P6SM OVC012
     FM141400 18009KT P6SM BKN035
     FM141800 24008KT P6SM SCT030 BKN250
     FM142300 29007KT P6SM SCT250=

USA.gov is the U.S. government's official web portal to all federal, state and local government web resources and services.